sensor_id;sensor_type;location;lat;lon;timestamp;temperature;humidity
17726;DHT22;8983;53.156;17.960;2022-12-31T00:01:13;5.70;99.90
17726;DHT22;8983;53.156;17.960;2022-12-31T00:03:42;5.70;99.90
17726;DHT22;8983;53.156;17.960;2022-12-31T00:06:17;5.70;99.90
17726;DHT22;8983;53.156;17.960;2022-12-31T00:08:47;5.80;99.90
17726;DHT22;8983;53.156;17.960;2022-12-31T00:11:15;5.80;99.90
17726;DHT22;8983;53.156;17.960;2022-12-31T00:13:44;5.80;99.90
17726;DHT22;8983;53.156;17.960;2022-12-31T00:16:14;5.80;99.90
17726;DHT22;8983;53.156;17.960;2022-12-31T00:18:43;5.80;99.90
17726;DHT22;8983;53.156;17.960;2022-12-31T00:21:12;5.80;99.90
17726;DHT22;8983;53.156;17.960;2022-12-31T00:23:40;5.80;99.90
17726;DHT22;8983;53.156;17.960;2022-12-31T00:26:13;5.80;99.90
17726;DHT22;8983;53.156;17.960;2022-12-31T00:28:42;5.80;99.90
17726;DHT22;8983;53.156;17.960;2022-12-31T00:31:13;5.80;99.90
17726;DHT22;8983;53.156;17.960;2022-12-31T00:33:41;5.90;99.90
17726;DHT22;8983;53.156;17.960;2022-12-31T00:36:12;5.90;99.90
17726;DHT22;8983;53.156;17.960;2022-12-31T00:38:42;5.90;99.90
17726;DHT22;8983;53.156;17.960;2022-12-31T00:41:13;5.90;99.90
17726;DHT22;8983;53.156;17.960;2022-12-31T00:43:41;5.90;99.90
17726;DHT22;8983;53.156;17.960;2022-12-31T00:46:11;5.90;99.90
17726;DHT22;8983;53.156;17.960;2022-12-31T00:48:39;5.90;99.90
17726;DHT22;8983;53.156;17.960;2022-12-31T00:51:10;5.90;99.90
17726;DHT22;8983;53.156;17.960;2022-12-31T00:53:39;5.90;99.90
17726;DHT22;8983;53.156;17.960;2022-12-31T00:56:10;5.90;99.90
17726;DHT22;8983;53.156;17.960;2022-12-31T00:58:40;5.90;99.90
17726;DHT22;8983;53.156;17.960;2022-12-31T01:01:09;5.90;99.90
17726;DHT22;8983;53.156;17.960;2022-12-31T01:03:37;5.90;99.90
17726;DHT22;8983;53.156;17.960;2022-12-31T01:06:06;6.00;99.90
17726;DHT22;8983;53.156;17.960;2022-12-31T01:08:34;6.00;99.90
17726;DHT22;8983;53.156;17.960;2022-12-31T01:11:03;6.00;99.90
17726;DHT22;8983;53.156;17.960;2022-12-31T01:13:51;6.00;99.90
17726;DHT22;8983;53.156;17.960;2022-12-31T01:16:21;6.10;99.90
17726;DHT22;8983;53.156;17.960;2022-12-31T01:18:50;6.10;99.90
17726;DHT22;8983;53.156;17.960;2022-12-31T01:21:19;6.20;99.90
17726;DHT22;8983;53.156;17.960;2022-12-31T01:23:48;6.30;99.90
17726;DHT22;8983;53.156;17.960;2022-12-31T01:26:18;6.40;99.90
17726;DHT22;8983;53.156;17.960;2022-12-31T01:28:46;6.40;99.90
17726;DHT22;8983;53.156;17.960;2022-12-31T01:31:17;6.50;99.90
17726;DHT22;8983;53.156;17.960;2022-12-31T01:33:46;6.50;99.90
17726;DHT22;8983;53.156;17.960;2022-12-31T01:36:15;6.50;99.90
17726;DHT22;8983;53.156;17.960;2022-12-31T01:38:51;6.60;99.90
17726;DHT22;8983;53.156;17.960;2022-12-31T01:41:22;6.70;99.90
17726;DHT22;8983;53.156;17.960;2022-12-31T01:43:52;6.70;99.90
17726;DHT22;8983;53.156;17.960;2022-12-31T01:46:28;6.80;99.90
17726;DHT22;8983;53.156;17.960;2022-12-31T01:49:02;6.80;99.90
17726;DHT22;8983;53.156;17.960;2022-12-31T01:51:32;6.90;99.90
17726;DHT22;8983;53.156;17.960;2022-12-31T01:54:03;7.00;99.90
17726;DHT22;8983;53.156;17.960;2022-12-31T01:56:34;7.00;99.90
17726;DHT22;8983;53.156;17.960;2022-12-31T01:59:04;7.00;99.90
17726;DHT22;8983;53.156;17.960;2022-12-31T02:01:36;7.10;99.90
17726;DHT22;8983;53.156;17.960;2022-12-31T02:04:07;7.10;99.90
17726;DHT22;8983;53.156;17.960;2022-12-31T02:06:39;7.10;99.90
17726;DHT22;8983;53.156;17.960;2022-12-31T02:09:08;7.10;99.90
17726;DHT22;8983;53.156;17.960;2022-12-31T02:11:37;7.10;99.90
17726;DHT22;8983;53.156;17.960;2022-12-31T02:14:08;7.10;99.90
17726;DHT22;8983;53.156;17.960;2022-12-31T02:16:46;7.10;99.90
17726;DHT22;8983;53.156;17.960;2022-12-31T02:19:37;7.20;99.90
17726;DHT22;8983;53.156;17.960;2022-12-31T02:22:21;7.10;99.90
17726;DHT22;8983;53.156;17.960;2022-12-31T02:25:17;7.10;99.90
17726;DHT22;8983;53.156;17.960;2022-12-31T02:27:56;7.10;99.90
17726;DHT22;8983;53.156;17.960;2022-12-31T02:30:32;7.10;99.90
17726;DHT22;8983;53.156;17.960;2022-12-31T02:33:07;7.10;99.90
17726;DHT22;8983;53.156;17.960;2022-12-31T02:35:42;7.10;99.90
17726;DHT22;8983;53.156;17.960;2022-12-31T02:38:16;7.10;99.90
17726;DHT22;8983;53.156;17.960;2022-12-31T02:40:46;7.10;99.90
17726;DHT22;8983;53.156;17.960;2022-12-31T02:43:14;7.10;99.90
17726;DHT22;8983;53.156;17.960;2022-12-31T02:45:46;7.10;99.90
17726;DHT22;8983;53.156;17.960;2022-12-31T02:48:24;7.10;99.90
17726;DHT22;8983;53.156;17.960;2022-12-31T02:50:59;7.10;99.90
17726;DHT22;8983;53.156;17.960;2022-12-31T02:53:57;7.10;99.90
17726;DHT22;8983;53.156;17.960;2022-12-31T02:56:29;7.10;99.90
17726;DHT22;8983;53.156;17.960;2022-12-31T02:59:05;7.10;99.90
17726;DHT22;8983;53.156;17.960;2022-12-31T03:02:00;7.10;99.90
17726;DHT22;8983;53.156;17.960;2022-12-31T03:04:45;7.00;99.90
17726;DHT22;8983;53.156;17.960;2022-12-31T03:07:18;7.10;99.90
17726;DHT22;8983;53.156;17.960;2022-12-31T03:09:46;7.10;99.90
17726;DHT22;8983;53.156;17.960;2022-12-31T03:12:15;7.10;99.90
17726;DHT22;8983;53.156;17.960;2022-12-31T03:15:02;7.10;99.90
17726;DHT22;8983;53.156;17.960;2022-12-31T03:17:33;7.10;99.90
17726;DHT22;8983;53.156;17.960;2022-12-31T03:20:01;7.10;99.90
17726;DHT22;8983;53.156;17.960;2022-12-31T03:22:47;7.10;99.90
17726;DHT22;8983;53.156;17.960;2022-12-31T03:25:17;7.20;99.90
17726;DHT22;8983;53.156;17.960;2022-12-31T03:28:00;7.10;99.90
17726;DHT22;8983;53.156;17.960;2022-12-31T03:30:29;7.10;99.90
17726;DHT22;8983;53.156;17.960;2022-12-31T03:32:59;7.10;99.90
17726;DHT22;8983;53.156;17.960;2022-12-31T03:35:30;7.10;99.90
17726;DHT22;8983;53.156;17.960;2022-12-31T03:37:59;7.10;99.90
17726;DHT22;8983;53.156;17.960;2022-12-31T03:40:28;7.10;99.90
17726;DHT22;8983;53.156;17.960;2022-12-31T03:42:57;7.20;99.90
17726;DHT22;8983;53.156;17.960;2022-12-31T03:45:25;7.10;99.90
17726;DHT22;8983;53.156;17.960;2022-12-31T03:47:53;7.20;99.90
17726;DHT22;8983;53.156;17.960;2022-12-31T03:50:22;7.20;99.90
17726;DHT22;8983;53.156;17.960;2022-12-31T03:52:50;7.20;99.90
17726;DHT22;8983;53.156;17.960;2022-12-31T03:55:18;7.20;99.90
17726;DHT22;8983;53.156;17.960;2022-12-31T03:57:46;7.20;99.90
17726;DHT22;8983;53.156;17.960;2022-12-31T04:00:17;7.20;99.90
17726;DHT22;8983;53.156;17.960;2022-12-31T04:02:45;7.20;99.90
17726;DHT22;8983;53.156;17.960;2022-12-31T04:05:14;7.20;99.90
17726;DHT22;8983;53.156;17.960;2022-12-31T04:07:44;7.20;99.90
17726;DHT22;8983;53.156;17.960;2022-12-31T04:10:14;7.30;99.90
17726;DHT22;8983;53.156;17.960;2022-12-31T04:12:43;7.30;99.90
17726;DHT22;8983;53.156;17.960;2022-12-31T04:15:14;7.30;99.90
17726;DHT22;8983;53.156;17.960;2022-12-31T04:17:42;7.30;99.90
17726;DHT22;8983;53.156;17.960;2022-12-31T04:20:11;7.30;99.90
17726;DHT22;8983;53.156;17.960;2022-12-31T04:22:39;7.40;99.90
17726;DHT22;8983;53.156;17.960;2022-12-31T04:25:08;7.50;99.90
17726;DHT22;8983;53.156;17.960;2022-12-31T04:27:37;7.40;99.90
17726;DHT22;8983;53.156;17.960;2022-12-31T04:30:06;7.40;99.90
17726;DHT22;8983;53.156;17.960;2022-12-31T04:32:35;7.50;99.90
17726;DHT22;8983;53.156;17.960;2022-12-31T04:35:03;7.50;99.90
17726;DHT22;8983;53.156;17.960;2022-12-31T04:37:31;7.50;99.90
17726;DHT22;8983;53.156;17.960;2022-12-31T04:39:59;7.50;99.90
17726;DHT22;8983;53.156;17.960;2022-12-31T04:42:33;7.50;99.90
17726;DHT22;8983;53.156;17.960;2022-12-31T04:45:02;7.60;99.90
17726;DHT22;8983;53.156;17.960;2022-12-31T04:47:30;7.60;99.90
17726;DHT22;8983;53.156;17.960;2022-12-31T04:49:58;7.60;99.90
17726;DHT22;8983;53.156;17.960;2022-12-31T04:52:27;7.60;99.90
17726;DHT22;8983;53.156;17.960;2022-12-31T04:54:55;7.70;99.90
17726;DHT22;8983;53.156;17.960;2022-12-31T04:57:23;7.70;99.90
17726;DHT22;8983;53.156;17.960;2022-12-31T04:59:52;7.70;99.90
17726;DHT22;8983;53.156;17.960;2022-12-31T05:02:20;7.70;99.90
17726;DHT22;8983;53.156;17.960;2022-12-31T05:04:48;7.70;99.90
17726;DHT22;8983;53.156;17.960;2022-12-31T05:07:16;7.70;99.90
17726;DHT22;8983;53.156;17.960;2022-12-31T05:09:44;7.80;99.90
17726;DHT22;8983;53.156;17.960;2022-12-31T05:12:12;7.70;99.90
17726;DHT22;8983;53.156;17.960;2022-12-31T05:14:40;7.80;99.90
17726;DHT22;8983;53.156;17.960;2022-12-31T05:17:10;7.80;99.90
17726;DHT22;8983;53.156;17.960;2022-12-31T05:19:38;7.80;99.90
17726;DHT22;8983;53.156;17.960;2022-12-31T05:22:06;7.70;99.90
17726;DHT22;8983;53.156;17.960;2022-12-31T05:24:51;7.80;99.90
17726;DHT22;8983;53.156;17.960;2022-12-31T05:27:19;7.80;99.90
17726;DHT22;8983;53.156;17.960;2022-12-31T05:29:47;7.80;99.90
17726;DHT22;8983;53.156;17.960;2022-12-31T05:32:17;7.90;99.90
17726;DHT22;8983;53.156;17.960;2022-12-31T05:34:45;7.90;99.90
17726;DHT22;8983;53.156;17.960;2022-12-31T05:37:13;7.90;99.90
17726;DHT22;8983;53.156;17.960;2022-12-31T05:39:41;7.90;99.90
17726;DHT22;8983;53.156;17.960;2022-12-31T05:42:09;7.90;99.90
17726;DHT22;8983;53.156;17.960;2022-12-31T05:44:37;7.90;99.90
17726;DHT22;8983;53.156;17.960;2022-12-31T05:47:05;8.00;99.90
17726;DHT22;8983;53.156;17.960;2022-12-31T05:49:34;8.00;99.90
17726;DHT22;8983;53.156;17.960;2022-12-31T05:52:02;8.00;99.90
17726;DHT22;8983;53.156;17.960;2022-12-31T05:54:30;8.00;99.90
17726;DHT22;8983;53.156;17.960;2022-12-31T05:56:58;8.00;99.90
17726;DHT22;8983;53.156;17.960;2022-12-31T05:59:26;8.00;99.90
17726;DHT22;8983;53.156;17.960;2022-12-31T06:01:55;8.00;99.90
17726;DHT22;8983;53.156;17.960;2022-12-31T06:04:23;8.10;99.90
17726;DHT22;8983;53.156;17.960;2022-12-31T06:06:52;8.00;99.90
17726;DHT22;8983;53.156;17.960;2022-12-31T06:09:21;8.10;99.90
17726;DHT22;8983;53.156;17.960;2022-12-31T06:11:49;8.10;99.90
17726;DHT22;8983;53.156;17.960;2022-12-31T06:14:17;8.10;99.90
17726;DHT22;8983;53.156;17.960;2022-12-31T06:16:45;8.10;99.90
17726;DHT22;8983;53.156;17.960;2022-12-31T06:19:13;8.10;99.90
17726;DHT22;8983;53.156;17.960;2022-12-31T06:21:41;8.10;99.90
17726;DHT22;8983;53.156;17.960;2022-12-31T06:24:10;8.20;99.90
17726;DHT22;8983;53.156;17.960;2022-12-31T06:26:38;8.20;99.90
17726;DHT22;8983;53.156;17.960;2022-12-31T06:29:07;8.20;99.90
17726;DHT22;8983;53.156;17.960;2022-12-31T06:31:36;8.20;99.90
17726;DHT22;8983;53.156;17.960;2022-12-31T06:34:04;8.20;99.90
17726;DHT22;8983;53.156;17.960;2022-12-31T06:36:32;8.20;99.90
17726;DHT22;8983;53.156;17.960;2022-12-31T06:39:00;8.30;99.90
17726;DHT22;8983;53.156;17.960;2022-12-31T06:41:30;8.30;99.90
17726;DHT22;8983;53.156;17.960;2022-12-31T06:43:58;8.30;99.90
17726;DHT22;8983;53.156;17.960;2022-12-31T06:46:26;8.30;99.90
17726;DHT22;8983;53.156;17.960;2022-12-31T06:48:54;8.30;99.90
17726;DHT22;8983;53.156;17.960;2022-12-31T06:51:22;8.30;99.90
17726;DHT22;8983;53.156;17.960;2022-12-31T06:53:50;8.30;99.90
17726;DHT22;8983;53.156;17.960;2022-12-31T06:56:20;8.20;99.90
17726;DHT22;8983;53.156;17.960;2022-12-31T06:58:57;8.30;99.90
17726;DHT22;8983;53.156;17.960;2022-12-31T07:01:35;8.30;99.90
17726;DHT22;8983;53.156;17.960;2022-12-31T07:04:30;8.20;99.90
17726;DHT22;8983;53.156;17.960;2022-12-31T07:07:07;8.30;99.90
17726;DHT22;8983;53.156;17.960;2022-12-31T07:09:42;8.20;99.90
17726;DHT22;8983;53.156;17.960;2022-12-31T07:12:22;8.20;99.90
17726;DHT22;8983;53.156;17.960;2022-12-31T07:15:03;8.20;99.90
17726;DHT22;8983;53.156;17.960;2022-12-31T07:17:36;8.20;99.90
17726;DHT22;8983;53.156;17.960;2022-12-31T07:20:09;8.20;99.90
17726;DHT22;8983;53.156;17.960;2022-12-31T07:22:38;8.20;99.90
17726;DHT22;8983;53.156;17.960;2022-12-31T07:25:11;8.20;99.90
17726;DHT22;8983;53.156;17.960;2022-12-31T07:27:52;8.20;99.90
17726;DHT22;8983;53.156;17.960;2022-12-31T07:30:30;8.20;99.90
17726;DHT22;8983;53.156;17.960;2022-12-31T07:33:10;8.20;99.90
17726;DHT22;8983;53.156;17.960;2022-12-31T07:35:47;8.20;99.90
17726;DHT22;8983;53.156;17.960;2022-12-31T07:38:25;8.10;99.90
17726;DHT22;8983;53.156;17.960;2022-12-31T07:41:05;8.10;99.90
17726;DHT22;8983;53.156;17.960;2022-12-31T07:43:46;8.10;99.90
17726;DHT22;8983;53.156;17.960;2022-12-31T07:46:23;8.10;99.90
17726;DHT22;8983;53.156;17.960;2022-12-31T07:48:53;8.10;99.90
17726;DHT22;8983;53.156;17.960;2022-12-31T07:51:21;8.10;99.90
17726;DHT22;8983;53.156;17.960;2022-12-31T07:53:49;8.20;99.90
17726;DHT22;8983;53.156;17.960;2022-12-31T07:56:17;8.20;99.90
17726;DHT22;8983;53.156;17.960;2022-12-31T07:59:01;8.20;99.90
17726;DHT22;8983;53.156;17.960;2022-12-31T08:01:38;8.20;99.90
17726;DHT22;8983;53.156;17.960;2022-12-31T08:04:17;8.30;99.90
17726;DHT22;8983;53.156;17.960;2022-12-31T08:06:55;8.30;99.90
17726;DHT22;8983;53.156;17.960;2022-12-31T08:09:34;8.30;99.90
17726;DHT22;8983;53.156;17.960;2022-12-31T08:12:05;8.40;99.90
17726;DHT22;8983;53.156;17.960;2022-12-31T08:14:39;8.40;99.90
17726;DHT22;8983;53.156;17.960;2022-12-31T08:17:12;8.40;99.90
17726;DHT22;8983;53.156;17.960;2022-12-31T08:19:40;8.40;99.90
17726;DHT22;8983;53.156;17.960;2022-12-31T08:22:23;8.50;99.90
17726;DHT22;8983;53.156;17.960;2022-12-31T08:25:05;8.50;99.90
17726;DHT22;8983;53.156;17.960;2022-12-31T08:27:39;8.50;99.90
17726;DHT22;8983;53.156;17.960;2022-12-31T08:30:13;8.60;99.90
17726;DHT22;8983;53.156;17.960;2022-12-31T08:32:47;8.60;99.90
17726;DHT22;8983;53.156;17.960;2022-12-31T08:35:31;8.60;99.90
17726;DHT22;8983;53.156;17.960;2022-12-31T08:38:05;8.60;99.90
17726;DHT22;8983;53.156;17.960;2022-12-31T08:40:45;8.60;99.90
17726;DHT22;8983;53.156;17.960;2022-12-31T08:43:26;8.70;99.90
17726;DHT22;8983;53.156;17.960;2022-12-31T08:45:58;8.70;99.90
17726;DHT22;8983;53.156;17.960;2022-12-31T08:48:33;8.70;99.90
17726;DHT22;8983;53.156;17.960;2022-12-31T08:51:03;8.70;99.90
17726;DHT22;8983;53.156;17.960;2022-12-31T08:53:32;8.80;99.90
17726;DHT22;8983;53.156;17.960;2022-12-31T08:56:04;8.80;99.90
17726;DHT22;8983;53.156;17.960;2022-12-31T08:58:41;8.80;99.90
17726;DHT22;8983;53.156;17.960;2022-12-31T09:01:12;8.90;99.90
17726;DHT22;8983;53.156;17.960;2022-12-31T09:03:59;8.90;99.90
17726;DHT22;8983;53.156;17.960;2022-12-31T09:06:35;8.90;99.90
17726;DHT22;8983;53.156;17.960;2022-12-31T09:09:11;9.00;99.90
17726;DHT22;8983;53.156;17.960;2022-12-31T09:11:49;9.00;99.90
17726;DHT22;8983;53.156;17.960;2022-12-31T09:14:29;9.00;99.90
17726;DHT22;8983;53.156;17.960;2022-12-31T09:17:03;9.10;99.90
17726;DHT22;8983;53.156;17.960;2022-12-31T09:19:37;9.10;99.90
17726;DHT22;8983;53.156;17.960;2022-12-31T09:22:05;9.10;99.90
17726;DHT22;8983;53.156;17.960;2022-12-31T09:24:33;9.10;99.90
17726;DHT22;8983;53.156;17.960;2022-12-31T09:27:08;9.20;99.90
17726;DHT22;8983;53.156;17.960;2022-12-31T09:29:45;9.20;99.90
17726;DHT22;8983;53.156;17.960;2022-12-31T09:32:22;9.10;99.90
17726;DHT22;8983;53.156;17.960;2022-12-31T09:34:59;9.30;99.90
17726;DHT22;8983;53.156;17.960;2022-12-31T09:37:37;9.30;99.90
17726;DHT22;8983;53.156;17.960;2022-12-31T09:40:28;9.30;99.90
17726;DHT22;8983;53.156;17.960;2022-12-31T09:43:13;9.30;99.90
17726;DHT22;8983;53.156;17.960;2022-12-31T09:46:06;9.30;99.90
17726;DHT22;8983;53.156;17.960;2022-12-31T09:51:51;9.20;99.90
17726;DHT22;8983;53.156;17.960;2022-12-31T09:54:38;9.10;99.90
17726;DHT22;8983;53.156;17.960;2022-12-31T09:57:28;9.10;99.90
17726;DHT22;8983;53.156;17.960;2022-12-31T10:00:02;9.10;99.90
17726;DHT22;8983;53.156;17.960;2022-12-31T10:02:46;9.10;99.90
17726;DHT22;8983;53.156;17.960;2022-12-31T10:05:39;9.10;99.90
17726;DHT22;8983;53.156;17.960;2022-12-31T10:08:19;9.20;99.90
17726;DHT22;8983;53.156;17.960;2022-12-31T10:10:52;9.10;99.90
17726;DHT22;8983;53.156;17.960;2022-12-31T10:13:32;9.10;99.90
17726;DHT22;8983;53.156;17.960;2022-12-31T10:16:18;9.20;99.90
17726;DHT22;8983;53.156;17.960;2022-12-31T10:19:20;9.10;99.90
17726;DHT22;8983;53.156;17.960;2022-12-31T10:22:01;9.10;99.90
17726;DHT22;8983;53.156;17.960;2022-12-31T10:24:51;9.10;99.90
17726;DHT22;8983;53.156;17.960;2022-12-31T10:27:45;9.10;99.90
17726;DHT22;8983;53.156;17.960;2022-12-31T10:30:17;9.10;99.90
17726;DHT22;8983;53.156;17.960;2022-12-31T10:32:58;9.10;99.90
17726;DHT22;8983;53.156;17.960;2022-12-31T10:35:39;9.10;99.90
17726;DHT22;8983;53.156;17.960;2022-12-31T10:38:20;9.00;99.90
17726;DHT22;8983;53.156;17.960;2022-12-31T10:44:43;9.30;99.90
17726;DHT22;8983;53.156;17.960;2022-12-31T10:47:44;9.30;99.90
17726;DHT22;8983;53.156;17.960;2022-12-31T10:50:51;9.40;99.90
17726;DHT22;8983;53.156;17.960;2022-12-31T10:53:44;9.50;99.90
17726;DHT22;8983;53.156;17.960;2022-12-31T11:02:21;9.60;99.90
17726;DHT22;8983;53.156;17.960;2022-12-31T11:08:06;9.70;99.90
17726;DHT22;8983;53.156;17.960;2022-12-31T11:11:01;9.70;99.90
17726;DHT22;8983;53.156;17.960;2022-12-31T11:16:43;9.80;99.90
17726;DHT22;8983;53.156;17.960;2022-12-31T11:19:23;9.90;99.90
17726;DHT22;8983;53.156;17.960;2022-12-31T11:25:15;10.00;99.90
17726;DHT22;8983;53.156;17.960;2022-12-31T11:28:09;10.00;99.90
17726;DHT22;8983;53.156;17.960;2022-12-31T11:30:45;10.10;99.90
17726;DHT22;8983;53.156;17.960;2022-12-31T11:33:27;10.20;99.90
17726;DHT22;8983;53.156;17.960;2022-12-31T11:36:12;10.20;99.90
17726;DHT22;8983;53.156;17.960;2022-12-31T11:38:49;10.30;99.90
17726;DHT22;8983;53.156;17.960;2022-12-31T11:43:55;10.40;99.90
17726;DHT22;8983;53.156;17.960;2022-12-31T11:46:46;10.50;99.90
17726;DHT22;8983;53.156;17.960;2022-12-31T11:49:28;10.70;99.90
17726;DHT22;8983;53.156;17.960;2022-12-31T11:52:31;10.80;99.90
17726;DHT22;8983;53.156;17.960;2022-12-31T11:57:59;11.00;99.90
17726;DHT22;8983;53.156;17.960;2022-12-31T12:00:29;11.10;99.90
17726;DHT22;8983;53.156;17.960;2022-12-31T12:03:01;11.20;99.90
17726;DHT22;8983;53.156;17.960;2022-12-31T12:05:30;11.20;99.90
17726;DHT22;8983;53.156;17.960;2022-12-31T12:08:00;11.30;99.90
17726;DHT22;8983;53.156;17.960;2022-12-31T12:10:30;11.30;99.90
17726;DHT22;8983;53.156;17.960;2022-12-31T12:13:12;11.40;99.90
17726;DHT22;8983;53.156;17.960;2022-12-31T12:15:43;11.40;99.90
17726;DHT22;8983;53.156;17.960;2022-12-31T12:18:28;11.40;99.90
17726;DHT22;8983;53.156;17.960;2022-12-31T12:21:02;11.50;99.90
17726;DHT22;8983;53.156;17.960;2022-12-31T12:23:33;11.60;99.90
17726;DHT22;8983;53.156;17.960;2022-12-31T12:26:01;11.50;99.90
17726;DHT22;8983;53.156;17.960;2022-12-31T12:28:40;11.50;99.90
17726;DHT22;8983;53.156;17.960;2022-12-31T12:31:18;11.60;99.90
17726;DHT22;8983;53.156;17.960;2022-12-31T12:33:47;11.70;99.90
17726;DHT22;8983;53.156;17.960;2022-12-31T12:36:18;11.70;99.90
17726;DHT22;8983;53.156;17.960;2022-12-31T12:38:58;11.80;99.90
17726;DHT22;8983;53.156;17.960;2022-12-31T12:41:26;11.90;99.90
17726;DHT22;8983;53.156;17.960;2022-12-31T12:44:02;11.90;99.90
17726;DHT22;8983;53.156;17.960;2022-12-31T12:46:32;11.90;99.90
17726;DHT22;8983;53.156;17.960;2022-12-31T12:49:00;11.90;99.90
17726;DHT22;8983;53.156;17.960;2022-12-31T12:51:42;12.00;99.90
17726;DHT22;8983;53.156;17.960;2022-12-31T12:54:23;12.00;99.90
17726;DHT22;8983;53.156;17.960;2022-12-31T12:57:03;12.20;99.90
17726;DHT22;8983;53.156;17.960;2022-12-31T12:59:48;12.20;99.90
17726;DHT22;8983;53.156;17.960;2022-12-31T13:02:45;12.30;99.90
17726;DHT22;8983;53.156;17.960;2022-12-31T13:05:23;12.40;99.90
17726;DHT22;8983;53.156;17.960;2022-12-31T13:08:02;12.50;99.90
17726;DHT22;8983;53.156;17.960;2022-12-31T13:10:47;12.50;99.90
17726;DHT22;8983;53.156;17.960;2022-12-31T13:13:25;12.70;99.90
17726;DHT22;8983;53.156;17.960;2022-12-31T13:16:02;12.70;99.90
17726;DHT22;8983;53.156;17.960;2022-12-31T13:18:41;12.70;99.90
17726;DHT22;8983;53.156;17.960;2022-12-31T13:21:30;12.70;99.90
17726;DHT22;8983;53.156;17.960;2022-12-31T13:24:05;12.70;99.90
17726;DHT22;8983;53.156;17.960;2022-12-31T13:26:40;12.70;99.90
17726;DHT22;8983;53.156;17.960;2022-12-31T13:29:14;12.70;99.90
17726;DHT22;8983;53.156;17.960;2022-12-31T13:31:44;12.70;99.90
17726;DHT22;8983;53.156;17.960;2022-12-31T13:34:17;12.70;99.90
17726;DHT22;8983;53.156;17.960;2022-12-31T13:36:47;12.70;99.90
17726;DHT22;8983;53.156;17.960;2022-12-31T13:39:21;12.70;99.90
17726;DHT22;8983;53.156;17.960;2022-12-31T13:41:56;12.70;99.90
17726;DHT22;8983;53.156;17.960;2022-12-31T13:44:28;12.70;99.90
17726;DHT22;8983;53.156;17.960;2022-12-31T13:47:02;12.70;99.90
17726;DHT22;8983;53.156;17.960;2022-12-31T13:49:36;12.80;99.90
17726;DHT22;8983;53.156;17.960;2022-12-31T13:52:17;12.80;99.90
17726;DHT22;8983;53.156;17.960;2022-12-31T13:54:53;12.80;99.90
17726;DHT22;8983;53.156;17.960;2022-12-31T13:57:33;12.70;99.90
17726;DHT22;8983;53.156;17.960;2022-12-31T14:00:11;12.90;99.90
17726;DHT22;8983;53.156;17.960;2022-12-31T14:02:46;12.90;99.90
17726;DHT22;8983;53.156;17.960;2022-12-31T14:05:25;12.90;99.90
17726;DHT22;8983;53.156;17.960;2022-12-31T14:07:54;12.90;99.90
17726;DHT22;8983;53.156;17.960;2022-12-31T14:10:28;12.90;99.90
17726;DHT22;8983;53.156;17.960;2022-12-31T14:13:09;12.90;99.90
17726;DHT22;8983;53.156;17.960;2022-12-31T14:15:47;12.90;99.90
17726;DHT22;8983;53.156;17.960;2022-12-31T14:18:22;12.90;99.90
17726;DHT22;8983;53.156;17.960;2022-12-31T14:20:57;12.90;99.90
17726;DHT22;8983;53.156;17.960;2022-12-31T14:23:40;12.80;99.90
17726;DHT22;8983;53.156;17.960;2022-12-31T14:26:18;12.80;99.90
17726;DHT22;8983;53.156;17.960;2022-12-31T14:28:58;12.80;99.90
17726;DHT22;8983;53.156;17.960;2022-12-31T14:31:38;12.80;99.90
17726;DHT22;8983;53.156;17.960;2022-12-31T14:34:16;12.80;99.90
17726;DHT22;8983;53.156;17.960;2022-12-31T14:36:54;12.70;99.90
17726;DHT22;8983;53.156;17.960;2022-12-31T14:39:33;12.60;99.90
17726;DHT22;8983;53.156;17.960;2022-12-31T14:42:14;12.70;99.90
17726;DHT22;8983;53.156;17.960;2022-12-31T14:44:56;12.60;99.90
17726;DHT22;8983;53.156;17.960;2022-12-31T14:47:34;12.60;99.90
17726;DHT22;8983;53.156;17.960;2022-12-31T14:50:08;12.60;99.90
17726;DHT22;8983;53.156;17.960;2022-12-31T14:52:49;12.50;99.90
17726;DHT22;8983;53.156;17.960;2022-12-31T14:55:22;12.60;99.90
17726;DHT22;8983;53.156;17.960;2022-12-31T14:57:51;12.60;99.90
17726;DHT22;8983;53.156;17.960;2022-12-31T15:00:51;12.60;99.90
17726;DHT22;8983;53.156;17.960;2022-12-31T15:03:25;12.60;99.90
17726;DHT22;8983;53.156;17.960;2022-12-31T15:05:58;12.70;99.90
17726;DHT22;8983;53.156;17.960;2022-12-31T15:08:39;12.70;99.90
17726;DHT22;8983;53.156;17.960;2022-12-31T15:11:34;12.70;99.90
17726;DHT22;8983;53.156;17.960;2022-12-31T15:14:22;12.70;99.90
17726;DHT22;8983;53.156;17.960;2022-12-31T15:17:10;12.60;99.90
17726;DHT22;8983;53.156;17.960;2022-12-31T15:22:47;12.60;99.90
17726;DHT22;8983;53.156;17.960;2022-12-31T15:25:20;12.60;99.90
17726;DHT22;8983;53.156;17.960;2022-12-31T15:27:48;12.60;99.90
17726;DHT22;8983;53.156;17.960;2022-12-31T15:30:33;12.60;99.90
17726;DHT22;8983;53.156;17.960;2022-12-31T15:33:05;12.60;99.90
17726;DHT22;8983;53.156;17.960;2022-12-31T15:35:45;12.70;99.90
17726;DHT22;8983;53.156;17.960;2022-12-31T15:38:29;12.80;99.90
17726;DHT22;8983;53.156;17.960;2022-12-31T15:40:58;12.90;99.90
17726;DHT22;8983;53.156;17.960;2022-12-31T15:43:33;12.90;99.90
17726;DHT22;8983;53.156;17.960;2022-12-31T15:46:06;13.00;99.90
17726;DHT22;8983;53.156;17.960;2022-12-31T15:48:42;13.10;99.90
17726;DHT22;8983;53.156;17.960;2022-12-31T15:51:16;13.10;99.90
17726;DHT22;8983;53.156;17.960;2022-12-31T15:53:48;13.10;99.90
17726;DHT22;8983;53.156;17.960;2022-12-31T15:56:23;13.10;99.90
17726;DHT22;8983;53.156;17.960;2022-12-31T15:58:56;13.20;99.90
17726;DHT22;8983;53.156;17.960;2022-12-31T16:01:29;13.10;99.90
17726;DHT22;8983;53.156;17.960;2022-12-31T16:04:02;13.00;99.90
17726;DHT22;8983;53.156;17.960;2022-12-31T16:06:34;13.00;99.90
17726;DHT22;8983;53.156;17.960;2022-12-31T16:09:06;13.00;99.90
17726;DHT22;8983;53.156;17.960;2022-12-31T16:11:36;13.00;99.90
17726;DHT22;8983;53.156;17.960;2022-12-31T16:14:06;13.00;99.90
17726;DHT22;8983;53.156;17.960;2022-12-31T16:16:34;13.00;99.90
17726;DHT22;8983;53.156;17.960;2022-12-31T16:19:25;13.10;99.90
17726;DHT22;8983;53.156;17.960;2022-12-31T16:21:55;13.10;99.90
17726;DHT22;8983;53.156;17.960;2022-12-31T16:24:27;13.10;99.90
17726;DHT22;8983;53.156;17.960;2022-12-31T16:26:59;13.10;99.90
17726;DHT22;8983;53.156;17.960;2022-12-31T16:29:28;13.20;99.90
17726;DHT22;8983;53.156;17.960;2022-12-31T16:31:57;13.20;99.90
17726;DHT22;8983;53.156;17.960;2022-12-31T16:34:26;13.20;99.90
17726;DHT22;8983;53.156;17.960;2022-12-31T16:36:56;13.20;99.90
17726;DHT22;8983;53.156;17.960;2022-12-31T16:39:27;13.10;99.90
17726;DHT22;8983;53.156;17.960;2022-12-31T16:42:16;13.10;99.90
17726;DHT22;8983;53.156;17.960;2022-12-31T16:44:45;13.00;99.90
17726;DHT22;8983;53.156;17.960;2022-12-31T16:47:17;13.00;99.90
17726;DHT22;8983;53.156;17.960;2022-12-31T16:49:49;12.80;99.90
17726;DHT22;8983;53.156;17.960;2022-12-31T16:52:29;13.00;99.90
17726;DHT22;8983;53.156;17.960;2022-12-31T16:54:58;12.90;99.90
17726;DHT22;8983;53.156;17.960;2022-12-31T16:57:29;13.00;99.90